CA-0671 weather

Cyll
Canada

Public forecast

Using degrees Celsius for public forecast. Weather courtesy of forecast.io.

METAR (pilot weather report)

Closest report is Lloydminster Airport, 0.1 nm (0.1 km) SSW. Retrieved 2019/04/21 18:00 UTC (33 minutes ago):

CYLL 211800Z 32010G19KT 290V360 15SM SCT050 SCT250 10/M10 A3015 RMK CU3CI1 CI TR SLP235

TAF (pilot weather forecast)

Closest forecast is Lloydminster Airport, 0.1 nm (0.1 km) SSW. Retrieved 2019/04/21 18:42 UTC (0 seconds ago):

TAF TAF CYLL 211738Z 2118/2206 32012KT P6SM FEW050 FEW240 FM212200 24006KT P6SM SCT150 SCT240 BECMG 2201/2203 14010KT RMK NXT FCST BY 220000Z